createdAt,value
2022-09-12T00:00:02.424Z,1018.3
2022-09-12T00:05:03.096Z,1018.33
2022-09-12T00:10:02.921Z,1018.27
2022-09-12T00:15:02.620Z,1018.24
2022-09-12T00:20:03.265Z,1018.32
2022-09-12T00:25:02.885Z,1018.36
2022-09-12T00:30:06.945Z,1018.28
2022-09-12T00:35:03.557Z,1018.27
2022-09-12T00:40:03.301Z,1018.26
2022-09-12T00:45:03.239Z,1018.22
2022-09-12T00:50:02.910Z,1018.21
2022-09-12T00:55:03.897Z,1018.24
2022-09-12T01:00:03.370Z,1018.19
2022-09-12T01:05:02.966Z,1018.12
2022-09-12T01:10:02.812Z,1018.16
2022-09-12T01:15:03.317Z,1018.08
2022-09-12T01:20:02.955Z,1018.06
2022-09-12T01:25:02.582Z,1018.05
2022-09-12T01:30:03.245Z,1018.03
2022-09-12T01:35:02.965Z,1018.08
2022-09-12T01:40:02.885Z,1018.19
2022-09-12T01:45:02.651Z,1017.99
2022-09-12T01:50:02.616Z,1018.04
2022-09-12T01:55:10.275Z,1018.02
2022-09-12T02:00:02.810Z,1018.03
2022-09-12T02:05:02.443Z,1018.01
2022-09-12T02:10:03.254Z,1018.09
2022-09-12T02:15:02.806Z,1017.98
2022-09-12T02:20:02.525Z,1018.03
2022-09-12T02:25:03.258Z,1018.06
2022-09-12T02:30:02.969Z,1017.92
2022-09-12T02:35:02.531Z,1018.05
2022-09-12T02:40:03.363Z,1017.91
2022-09-12T02:45:02.982Z,1017.83
2022-09-12T02:50:02.546Z,1017.91
2022-09-12T02:55:03.619Z,1017.9
2022-09-12T03:00:03.234Z,1017.93
2022-09-12T03:05:02.856Z,1017.87
2022-09-12T03:10:02.492Z,1018.02
2022-09-12T03:15:02.462Z,1017.92
2022-09-12T03:20:02.522Z,1017.96
2022-09-12T03:25:03.288Z,1017.94
2022-09-12T03:30:02.958Z,1017.98
2022-09-12T03:35:02.540Z,1017.96
2022-09-12T03:40:03.205Z,1018.05
2022-09-12T03:45:02.822Z,1018.09
2022-09-12T03:50:02.391Z,1018.03
2022-09-12T03:55:04.190Z,1018.09
2022-09-12T04:00:02.802Z,1017.98
2022-09-12T04:05:02.450Z,1018.04
2022-09-12T04:10:04.197Z,1018.11
2022-09-12T04:15:02.718Z,1018.03
2022-09-12T04:20:02.348Z,1018.09
2022-09-12T04:25:03.231Z,1018
2022-09-12T04:30:02.838Z,1017.99
2022-09-12T04:35:02.527Z,1017.99
2022-09-12T04:40:03.180Z,1018.16
2022-09-12T04:45:02.726Z,1018.17
2022-09-12T04:50:02.325Z,1018.02
2022-09-12T04:55:04.101Z,1018.02
2022-09-12T05:00:07.437Z,1018.02
2022-09-12T05:05:03.148Z,1018.16
2022-09-12T05:10:02.850Z,1018.28
2022-09-12T05:15:02.952Z,1018.27
2022-09-12T05:20:02.475Z,1018.25
2022-09-12T05:25:03.132Z,1018.18
2022-09-12T05:30:02.732Z,1018.24
2022-09-12T05:35:02.335Z,1018.29
2022-09-12T05:40:03.184Z,1018.42
2022-09-12T05:45:02.747Z,1018.47
2022-09-12T05:50:02.497Z,1018.47
2022-09-12T05:55:04.508Z,1018.57
2022-09-12T06:00:02.717Z,1018.58
2022-09-12T06:05:02.421Z,1018.49
2022-09-12T06:10:02.349Z,1018.71
2022-09-12T06:15:03.056Z,1018.64
2022-09-12T06:20:02.731Z,1018.56
2022-09-12T06:25:02.465Z,1018.6
2022-09-12T06:30:03.147Z,1018.63
2022-09-12T06:35:02.744Z,1018.57
2022-09-12T06:40:02.618Z,1018.59
2022-09-12T06:45:03.160Z,1018.6
2022-09-12T06:50:02.784Z,1018.67
2022-09-12T06:55:03.707Z,1018.66
2022-09-12T07:00:03.282Z,1018.68
2022-09-12T07:05:02.965Z,1018.75
2022-09-12T07:10:02.615Z,1018.68
2022-09-12T07:15:03.337Z,1018.68
2022-09-12T07:20:03.025Z,1018.73
2022-09-12T07:25:02.683Z,1018.86
2022-09-12T07:30:02.459Z,1018.88
2022-09-12T07:35:03.047Z,1018.83
2022-09-12T07:40:02.808Z,1018.7
2022-09-12T07:45:02.450Z,1018.76
2022-09-12T07:50:03.057Z,1018.74
2022-09-12T07:55:04.277Z,1018.53
2022-09-12T08:00:02.724Z,1018.62
2022-09-12T08:05:02.400Z,1018.56
2022-09-12T08:10:03.172Z,1018.6
2022-09-12T08:15:02.914Z,1018.56
2022-09-12T08:20:02.596Z,1018.6
2022-09-12T08:25:02.378Z,1018.55
2022-09-12T08:30:03.225Z,1018.55
2022-09-12T08:35:02.880Z,1018.47
2022-09-12T08:40:02.597Z,1018.51
2022-09-12T08:45:02.444Z,1018.56
2022-09-12T08:50:03.100Z,1018.55
2022-09-12T08:55:03.875Z,1018.58
2022-09-12T09:00:02.460Z,1018.52
2022-09-12T09:05:03.139Z,1018.39
2022-09-12T09:10:02.825Z,1018.44
2022-09-12T09:15:02.514Z,1018.41
2022-09-12T09:20:03.240Z,1018.47
2022-09-12T09:25:03.178Z,1018.35
2022-09-12T09:30:02.742Z,1018.41
2022-09-12T09:35:02.391Z,1018.28
2022-09-12T09:40:03.201Z,1018.33
2022-09-12T09:45:02.773Z,1018.28
2022-09-12T09:50:02.416Z,1018.22
2022-09-12T09:55:04.662Z,1018.2
2022-09-12T10:00:02.877Z,1018.17
2022-09-12T10:05:02.531Z,1018.18
2022-09-12T10:10:03.342Z,1018.07
2022-09-12T10:15:02.895Z,1017.96
2022-09-12T10:20:21.946Z,1017.92
2022-09-12T10:25:03.113Z,1017.91
2022-09-12T10:30:02.901Z,1017.96
2022-09-12T10:35:02.573Z,1017.96
2022-09-12T10:40:03.355Z,1017.97
2022-09-12T10:45:02.983Z,1017.92
2022-09-12T10:50:02.663Z,1017.94
2022-09-12T10:55:04.279Z,1017.91
2022-09-12T11:00:02.965Z,1017.84
2022-09-12T11:05:02.634Z,1017.76
2022-09-12T11:10:03.425Z,1017.75
2022-09-12T11:15:02.911Z,1017.74
2022-09-12T11:20:02.595Z,1017.73
2022-09-12T11:25:03.271Z,1017.85
2022-09-12T11:30:02.990Z,1017.84
2022-09-12T11:35:02.529Z,1017.76
2022-09-12T11:40:03.285Z,1017.57
2022-09-12T11:45:02.889Z,1017.56
2022-09-12T11:50:02.526Z,1017.52
2022-09-12T11:55:04.592Z,1017.5
2022-09-12T12:00:03.014Z,1017.46
2022-09-12T12:05:02.616Z,1017.5
2022-09-12T12:10:03.330Z,1017.53
2022-09-12T12:15:03.257Z,1017.43
2022-09-12T12:20:08.909Z,1017.44
2022-09-12T12:25:02.642Z,1017.43
2022-09-12T12:30:02.393Z,1017.32
2022-09-12T12:35:03.042Z,1017.31
2022-09-12T12:40:02.815Z,1017.23
2022-09-12T12:45:02.414Z,1017.21
2022-09-12T12:50:03.023Z,1017.31
2022-09-12T12:55:04.026Z,1017.13
2022-09-12T13:00:03.361Z,1017.13
2022-09-12T13:05:03.107Z,1017.14
2022-09-12T13:10:02.742Z,1017.23
2022-09-12T13:15:02.523Z,1017.07
2022-09-12T13:20:28.584Z,1017.04
2022-09-12T13:25:02.573Z,1016.95
2022-09-12T13:30:03.303Z,1016.83
2022-09-12T13:35:02.915Z,1016.83
2022-09-12T13:40:02.720Z,1016.78
2022-09-12T13:45:03.343Z,1016.74
2022-09-12T13:50:02.922Z,1016.66
2022-09-12T13:55:03.864Z,1016.66
2022-09-12T14:00:03.348Z,1016.58
2022-09-12T14:05:02.969Z,1016.6
2022-09-12T14:10:02.626Z,1016.51
2022-09-12T14:15:03.383Z,1016.52
2022-09-12T14:20:03.184Z,1016.6
2022-09-12T14:25:02.693Z,1016.5
2022-09-12T14:30:02.454Z,1016.4
2022-09-12T14:35:03.049Z,1016.42
2022-09-12T14:40:03.079Z,1016.28
2022-09-12T14:45:02.527Z,1016.3
2022-09-12T14:50:03.199Z,1016.29
2022-09-12T14:55:03.963Z,1016.25
2022-09-12T15:00:02.745Z,1016.15
2022-09-12T15:05:03.282Z,1016.08
2022-09-12T15:10:02.821Z,1016.03
2022-09-12T15:15:02.751Z,1016.1
2022-09-12T15:20:03.264Z,1016.01
2022-09-12T15:25:02.746Z,1016.04
2022-09-12T15:30:02.630Z,1016.14
2022-09-12T15:35:03.193Z,1016.04
2022-09-12T15:40:03.113Z,1015.96
2022-09-12T15:45:03.202Z,1015.98
2022-09-12T15:50:02.549Z,1015.91
2022-09-12T15:55:04.296Z,1015.9
2022-09-12T16:00:03.135Z,1015.89
2022-09-12T16:05:02.682Z,1015.85
2022-09-12T16:10:02.334Z,1015.93
2022-09-12T16:15:02.916Z,1015.93
2022-09-12T16:20:02.560Z,1015.84
2022-09-12T16:25:03.471Z,1015.76
2022-09-12T16:30:02.994Z,1015.68
2022-09-12T16:35:02.640Z,1015.68
2022-09-12T16:40:02.561Z,1015.64
2022-09-12T16:45:03.071Z,1015.51
2022-09-12T16:50:02.666Z,1015.47
2022-09-12T16:55:04.413Z,1015.47
2022-09-12T17:00:02.645Z,1015.48
2022-09-12T17:05:03.271Z,1015.35
2022-09-12T17:10:02.958Z,1015.34
2022-09-12T17:15:02.607Z,1015.3
2022-09-12T17:20:02.354Z,1015.3
2022-09-12T17:25:02.985Z,1015.26
2022-09-12T17:30:02.657Z,1015.22
2022-09-12T17:35:03.256Z,1015.42
2022-09-12T17:40:02.888Z,1015.45
2022-09-12T17:45:02.386Z,1015.41
2022-09-12T17:50:32.023Z,1015.42
2022-09-12T17:55:04.467Z,1015.3
2022-09-12T18:00:02.871Z,1015.3
2022-09-12T18:05:02.474Z,1015.4
2022-09-12T18:10:03.130Z,1015.39
2022-09-12T18:15:02.805Z,1015.37
2022-09-12T18:20:02.447Z,1015.25
2022-09-12T18:25:03.259Z,1015.31
2022-09-12T18:30:21.942Z,1015.2
2022-09-12T18:35:02.883Z,1015.21
2022-09-12T18:40:02.627Z,1015.16
2022-09-12T18:45:03.427Z,1015.22
2022-09-12T18:50:02.719Z,1015.2
2022-09-12T18:55:03.713Z,1015.28
2022-09-12T19:00:02.879Z,1015.31
2022-09-12T19:05:02.659Z,1015.14
2022-09-12T19:10:02.412Z,1015.11
2022-09-12T19:15:03.198Z,1015
2022-09-12T19:20:03.909Z,1015.04
2022-09-12T19:25:02.813Z,1015.01
2022-09-12T19:30:03.344Z,1014.97
2022-09-12T19:35:02.920Z,1014.97
2022-09-12T19:40:02.935Z,1014.91
2022-09-12T19:45:02.785Z,1014.81
2022-09-12T19:50:03.561Z,1014.8
2022-09-12T19:55:03.972Z,1014.85
2022-09-12T20:00:02.761Z,1014.87
2022-09-12T20:05:02.427Z,1014.85
2022-09-12T20:10:03.236Z,1014.81
2022-09-12T20:15:02.894Z,1014.76
2022-09-12T20:20:02.364Z,1014.74
2022-09-12T20:25:02.975Z,1014.74
2022-09-12T20:30:02.639Z,1014.74
2022-09-12T20:35:03.313Z,1014.71
2022-09-12T20:40:03.132Z,1014.84
2022-09-12T20:45:02.641Z,1014.81
2022-09-12T20:50:03.244Z,1014.75
2022-09-12T20:55:04.194Z,1014.74
2022-09-12T21:00:02.661Z,1014.75
2022-09-12T21:05:03.298Z,1014.63
2022-09-12T21:10:02.986Z,1014.62
2022-09-12T21:15:02.639Z,1014.69
2022-09-12T21:20:06.058Z,1014.63
2022-09-12T21:25:03.207Z,1014.52
2022-09-12T21:30:02.994Z,1014.52
2022-09-12T21:35:02.584Z,1014.39
2022-09-12T21:40:02.492Z,1014.45
2022-09-12T21:45:03.103Z,1014.45
2022-09-12T21:50:03.147Z,1014.49
2022-09-12T21:55:04.447Z,1014.38
2022-09-12T22:00:02.622Z,1014.25
2022-09-12T22:05:03.272Z,1014.27
2022-09-12T22:10:03.037Z,1014.13
2022-09-12T22:15:39.874Z,1014.09
2022-09-12T22:20:02.914Z,1014.01
2022-09-12T22:25:02.800Z,1013.89
2022-09-12T22:30:02.301Z,1013.85
2022-09-12T22:35:03.175Z,1013.79
2022-09-12T22:40:02.735Z,1013.7
2022-09-12T22:45:02.631Z,1013.68
2022-09-12T22:50:03.019Z,1013.72
2022-09-12T22:55:04.341Z,1013.68
2022-09-12T23:00:02.351Z,1013.69
2022-09-12T23:05:03.137Z,1013.61
2022-09-12T23:10:02.515Z,1013.52
2022-09-12T23:15:03.478Z,1013.44
2022-09-12T23:20:02.828Z,1013.49
2022-09-12T23:25:02.721Z,1013.53
2022-09-12T23:30:03.234Z,1013.5
2022-09-12T23:35:03.085Z,1013.45
2022-09-12T23:40:02.651Z,1013.36
2022-09-12T23:45:02.656Z,1013.35
2022-09-12T23:50:02.971Z,1013.23
2022-09-12T23:55:03.996Z,1013.21
